Time;durP1;ratioP1;P1;durP2;ratioP2;P2;SDS_P1;SDS_P2;PMS_P1;PMS_P2;Temp;Humidity;BMP_temperature;BMP_pressure;BME280_temperature;BME280_humidity;BME280_pressure;Samples;Min_cycle;Max_cycle;Signal;HPM_P1;HPM_P2
2021/01/05 00:01:44;;;;;;;33.97;17.73;;;4.30;99.90;;;;;;5075552;28;20288;-77
2021/01/05 00:04:10;;;;;;;36.80;17.97;;;4.40;99.90;;;;;;5075804;28;20293;-77
2021/01/05 00:06:37;;;;;;;32.07;17.80;;;4.30;99.90;;;;;;5075812;28;20242;-77
2021/01/05 00:09:05;;;;;;;31.83;17.13;;;4.30;99.90;;;;;;5075381;28;20219;-77
2021/01/05 00:11:32;;;;;;;32.23;17.73;;;4.40;99.90;;;;;;5074742;28;20658;-78
2021/01/05 00:13:58;;;;;;;33.57;16.60;;;4.40;99.90;;;;;;5077387;28;20312;-77
2021/01/05 00:16:30;;;;;;;30.80;16.93;;;4.40;99.90;;;;;;5080435;28;20235;-76
2021/01/05 00:18:56;;;;;;;32.23;16.47;;;4.40;99.90;;;;;;5075934;28;20284;-77
2021/01/05 00:21:25;;;;;;;34.73;17.30;;;4.40;99.90;;;;;;5075626;28;20254;-77
2021/01/05 00:23:52;;;;;;;37.13;17.70;;;4.30;99.90;;;;;;5076123;28;20201;-77
2021/01/05 00:26:19;;;;;;;39.13;17.50;;;4.40;99.90;;;;;;5075236;28;20314;-76
2021/01/05 00:28:47;;;;;;;32.87;17.63;;;4.30;99.90;;;;;;5072594;28;20193;-77
2021/01/05 00:31:13;;;;;;;36.90;17.47;;;4.30;99.90;;;;;;5065866;28;20297;-76
2021/01/05 00:33:39;;;;;;;36.70;16.63;;;4.30;99.90;;;;;;5074690;28;20209;-77
2021/01/05 00:36:06;;;;;;;34.03;17.20;;;4.30;99.90;;;;;;5074657;28;20225;-76
2021/01/05 00:38:33;;;;;;;34.57;16.87;;;4.30;99.90;;;;;;5074377;28;20917;-76
2021/01/05 00:40:59;;;;;;;30.40;16.67;;;4.30;99.90;;;;;;5073471;28;20512;-77
2021/01/05 00:43:27;;;;;;;33.30;17.47;;;4.30;99.90;;;;;;5067462;28;20201;-76
2021/01/05 00:45:54;;;;;;;30.20;16.07;;;4.30;99.90;;;;;;5073760;28;20552;-76
2021/01/05 00:48:20;;;;;;;36.93;17.00;;;4.30;99.90;;;;;;5074697;28;20350;-75
2021/01/05 00:50:47;;;;;;;32.27;16.13;;;4.30;99.90;;;;;;5074090;28;20207;-75
2021/01/05 00:53:13;;;;;;;30.27;15.80;;;4.30;99.90;;;;;;5078716;28;20343;-75
2021/01/05 00:55:39;;;;;;;28.97;15.77;;;4.30;99.90;;;;;;5077102;28;20252;-76
2021/01/05 00:58:06;;;;;;;34.30;17.27;;;4.30;99.90;;;;;;5073839;28;20211;-76
2021/01/05 01:00:33;;;;;;;32.50;17.73;;;4.40;99.90;;;;;;5070648;28;20247;-77
2021/01/05 01:03:00;;;;;;;30.47;15.73;;;4.20;99.90;;;;;;5072672;28;20308;-76
2021/01/05 01:05:26;;;;;;;32.27;16.30;;;4.30;99.90;;;;;;5072634;28;20212;-75
2021/01/05 01:07:53;;;;;;;34.07;17.43;;;4.30;99.90;;;;;;5070080;28;20301;-76
2021/01/05 01:10:19;;;;;;;32.53;16.13;;;4.30;99.90;;;;;;5071961;28;20216;-76
2021/01/05 01:12:46;;;;;;;29.93;15.50;;;4.30;99.90;;;;;;5070615;28;20308;-77
2021/01/05 01:15:13;;;;;;;32.23;16.37;;;4.30;99.90;;;;;;5072480;28;20765;-76
2021/01/05 01:17:41;;;;;;;29.50;15.67;;;4.30;99.90;;;;;;5074150;28;20214;-75
2021/01/05 01:20:09;;;;;;;30.33;16.83;;;4.30;99.90;;;;;;5072883;28;20288;-75
2021/01/05 01:22:36;;;;;;;28.83;14.33;;;4.30;99.90;;;;;;5072959;28;20316;-76
2021/01/05 01:25:04;;;;;;;31.20;15.53;;;4.40;99.90;;;;;;5073138;28;20288;-76
2021/01/05 01:27:30;;;;;;;28.53;14.97;;;4.40;99.90;;;;;;5073882;28;20240;-77
2021/01/05 01:29:57;;;;;;;31.73;15.83;;;4.40;99.90;;;;;;5071085;28;20265;-76
2021/01/05 01:32:23;;;;;;;33.37;14.87;;;4.40;99.90;;;;;;5068361;28;20232;-76
2021/01/05 01:34:50;;;;;;;30.27;14.57;;;4.40;99.90;;;;;;5069834;28;20216;-76
2021/01/05 01:37:18;;;;;;;28.87;15.00;;;4.40;99.90;;;;;;5073125;28;20630;-76
2021/01/05 01:39:46;;;;;;;27.50;14.50;;;4.40;99.90;;;;;;5071446;28;20205;-76
2021/01/05 01:42:15;;;;;;;27.10;14.90;;;4.40;99.90;;;;;;5071993;28;20212;-75
2021/01/05 01:44:43;;;;;;;30.17;15.20;;;4.50;99.90;;;;;;5073638;28;20240;-75
2021/01/05 01:47:16;;;;;;;29.30;14.37;;;4.50;99.90;;;;;;5076146;28;20283;-75
2021/01/05 01:49:45;;;;;;;26.13;14.23;;;4.50;99.90;;;;;;5073382;28;20272;-75
2021/01/05 01:52:13;;;;;;;31.40;15.00;;;4.40;99.90;;;;;;5074607;28;20208;-75
2021/01/05 01:55:10;;;;;;;35.60;16.73;;;4.50;99.90;;;;;;5076415;28;20197;-75
2021/01/05 01:57:58;;;;;;;26.03;14.33;;;4.50;99.90;;;;;;5072689;28;20213;-75
2021/01/05 02:00:35;;;;;;;28.60;14.53;;;4.50;99.90;;;;;;5077886;28;20209;-76
2021/01/05 02:03:45;;;;;;;31.53;14.23;;;4.50;99.90;;;;;;5076792;28;20633;-75
2021/01/05 02:06:19;;;;;;;26.37;13.77;;;4.50;99.90;;;;;;5074751;28;20205;-75
2021/01/05 02:09:02;;;;;;;27.47;15.07;;;4.50;99.90;;;;;;5074754;28;20204;-76
2021/01/05 02:11:46;;;;;;;28.60;15.00;;;4.50;99.90;;;;;;5077532;28;20302;-75
2021/01/05 02:14:26;;;;;;;30.93;14.60;;;4.60;99.90;;;;;;5076777;28;20296;-75
2021/01/05 02:17:28;;;;;;;30.63;16.30;;;4.60;99.90;;;;;;5081683;28;20228;-76
2021/01/05 02:19:58;;;;;;;30.80;15.13;;;4.50;99.90;;;;;;5078419;28;20248;-75
2021/01/05 02:22:36;;;;;;;30.50;16.10;;;4.60;99.90;;;;;;5074286;28;20611;-75
2021/01/05 02:25:08;;;;;;;31.27;15.43;;;4.60;99.90;;;;;;5076704;28;20256;-77
2021/01/05 02:27:44;;;;;;;32.83;15.03;;;4.60;99.90;;;;;;5073689;28;20284;-76
2021/01/05 02:30:15;;;;;;;31.50;16.37;;;4.60;99.90;;;;;;5075075;28;20201;-76
2021/01/05 02:32:50;;;;;;;37.07;16.60;;;4.60;99.90;;;;;;5074036;28;20743;-76
2021/01/05 02:35:43;;;;;;;33.87;15.13;;;4.60;99.90;;;;;;5076495;28;20227;-77
2021/01/05 02:38:28;;;;;;;32.57;15.97;;;4.60;99.90;;;;;;5073142;28;20205;-76
2021/01/05 02:41:11;;;;;;;31.30;15.83;;;4.70;99.90;;;;;;5075122;28;20212;-76
2021/01/05 02:44:12;;;;;;;35.20;15.67;;;4.60;99.90;;;;;;5075756;28;20669;-76
2021/01/05 02:46:50;;;;;;;36.23;15.57;;;4.60;99.90;;;;;;5075115;28;20606;-77
2021/01/05 02:49:33;;;;;;;31.87;14.93;;;4.60;99.90;;;;;;5076156;28;20213;-77
2021/01/05 02:52:29;;;;;;;34.50;15.73;;;4.60;99.90;;;;;;5075519;28;20563;-77
2021/01/05 02:55:22;;;;;;;31.50;15.70;;;4.60;99.90;;;;;;5071606;28;20288;-77
2021/01/05 02:57:55;;;;;;;30.20;16.10;;;4.60;99.90;;;;;;5072052;28;20205;-76
2021/01/05 03:00:47;;;;;;;32.87;14.43;;;4.60;99.90;;;;;;5074881;28;20659;-76
2021/01/05 03:03:44;;;;;;;31.90;15.23;;;4.60;99.90;;;;;;5072654;28;20316;-77
2021/01/05 03:06:19;;;;;;;32.53;14.03;;;4.60;99.90;;;;;;5071199;28;20202;-77
2021/01/05 03:08:57;;;;;;;28.13;13.63;;;4.60;99.90;;;;;;5072496;28;20289;-76
2021/01/05 03:11:31;;;;;;;24.80;11.90;;;4.60;99.90;;;;;;5071039;28;20260;-77
2021/01/05 03:14:03;;;;;;;26.90;13.53;;;4.60;99.90;;;;;;5074712;28;20295;-77
2021/01/05 03:16:35;;;;;;;21.23;11.50;;;4.60;99.90;;;;;;5072961;28;20215;-77
2021/01/05 03:19:09;;;;;;;26.33;12.57;;;4.70;99.90;;;;;;5066710;28;20213;-77
2021/01/05 03:21:39;;;;;;;23.07;12.13;;;4.60;99.90;;;;;;5072717;28;20202;-76
2021/01/05 03:24:07;;;;;;;22.73;12.27;;;4.60;99.90;;;;;;5074665;28;20292;-75
2021/01/05 03:26:39;;;;;;;19.67;11.43;;;4.70;99.90;;;;;;5069793;28;20217;-77
2021/01/05 03:29:07;;;;;;;23.03;12.27;;;4.70;99.90;;;;;;5073909;28;20622;-78
2021/01/05 03:31:44;;;;;;;22.67;12.00;;;4.70;99.90;;;;;;5076183;28;20618;-76
2021/01/05 03:34:10;;;;;;;22.43;12.60;;;4.70;99.90;;;;;;5072240;28;20204;-75
2021/01/05 03:36:37;;;;;;;22.50;12.37;;;4.70;99.90;;;;;;5074002;28;20703;-75
2021/01/05 03:39:04;;;;;;;22.20;11.60;;;4.70;99.90;;;;;;5074383;28;20296;-76
2021/01/05 03:41:31;;;;;;;22.70;11.70;;;4.60;99.90;;;;;;5072856;28;20212;-75
2021/01/05 03:43:57;;;;;;;22.53;12.13;;;4.60;99.90;;;;;;5074045;28;20212;-75
2021/01/05 03:46:26;;;;;;;22.00;11.37;;;4.60;99.90;;;;;;5074043;28;20229;-76
2021/01/05 03:48:53;;;;;;;21.00;11.27;;;4.60;99.90;;;;;;5073632;28;20197;-75
2021/01/05 03:51:20;;;;;;;18.23;10.33;;;4.60;99.90;;;;;;5074155;28;20654;-74
2021/01/05 03:53:46;;;;;;;19.50;11.27;;;4.60;99.90;;;;;;5076408;28;20209;-75
2021/01/05 03:56:12;;;;;;;17.90;9.83;;;4.60;99.90;;;;;;5070894;28;20217;-75
2021/01/05 03:58:39;;;;;;;18.73;10.63;;;4.60;99.90;;;;;;5073560;28;20286;-75
2021/01/05 04:01:05;;;;;;;20.87;10.47;;;4.60;99.90;;;;;;5068509;28;20219;-75
2021/01/05 04:03:32;;;;;;;18.27;9.43;;;4.60;99.90;;;;;;5068750;28;20254;-75
2021/01/05 04:05:59;;;;;;;14.57;9.00;;;4.60;99.90;;;;;;5073599;28;20304;-75
2021/01/05 04:08:27;;;;;;;15.97;9.33;;;4.60;99.90;;;;;;5072963;28;20246;-74
2021/01/05 04:10:54;;;;;;;15.50;8.40;;;4.60;99.90;;;;;;5071351;28;20208;-76
2021/01/05 04:13:20;;;;;;;12.93;7.90;;;4.60;99.90;;;;;;5073276;28;20673;-76
2021/01/05 04:15:47;;;;;;;15.17;8.13;;;4.60;99.90;;;;;;5073415;28;20233;-76
2021/01/05 04:18:13;;;;;;;13.70;7.83;;;4.60;99.90;;;;;;5073953;28;20232;-76
2021/01/05 04:20:40;;;;;;;13.30;8.53;;;4.60;99.90;;;;;;5070810;28;20238;-77
2021/01/05 04:23:07;;;;;;;13.63;7.63;;;4.70;99.90;;;;;;5071187;28;20233;-76
2021/01/05 04:25:33;;;;;;;13.73;7.93;;;4.70;99.90;;;;;;5073338;28;20228;-75
2021/01/05 04:28:00;;;;;;;12.47;7.40;;;4.70;99.90;;;;;;5073959;28;20299;-75
2021/01/05 04:30:28;;;;;;;11.57;6.87;;;4.70;99.90;;;;;;5070929;28;20202;-76
2021/01/05 04:32:57;;;;;;;10.30;6.53;;;4.70;99.90;;;;;;5073019;28;20216;-74
2021/01/05 04:35:25;;;;;;;12.27;7.30;;;4.70;99.90;;;;;;5072952;28;20219;-77
2021/01/05 04:37:52;;;;;;;10.20;6.70;;;4.70;99.90;;;;;;5073123;28;20231;-76
2021/01/05 04:40:27;;;;;;;12.57;6.73;;;4.70;99.90;;;;;;5072972;28;20231;-76
2021/01/05 04:43:14;;;;;;;12.90;7.27;;;4.70;99.90;;;;;;5071215;28;20223;-75
2021/01/05 04:45:50;;;;;;;10.70;6.37;;;4.70;99.90;;;;;;5069791;28;20193;-75
2021/01/05 04:48:38;;;;;;;8.87;6.13;;;4.70;99.90;;;;;;5072114;28;20251;-76
2021/01/05 04:51:15;;;;;;;8.67;5.70;;;4.70;99.90;;;;;;5073459;28;20308;-77
2021/01/05 04:53:48;;;;;;;7.23;5.27;;;4.70;99.90;;;;;;5073103;28;20725;-77
2021/01/05 04:56:17;;;;;;;8.70;5.60;;;4.70;99.90;;;;;;5073337;28;20293;-76
2021/01/05 04:58:49;;;;;;;7.43;5.27;;;4.70;99.90;;;;;;5073060;28;20318;-76
2021/01/05 05:01:20;;;;;;;7.53;5.00;;;4.70;99.90;;;;;;5067985;28;20209;-76
2021/01/05 05:04:02;;;;;;;8.00;5.87;;;4.90;99.90;;;;;;5066766;28;20198;-75
2021/01/05 05:06:37;;;;;;;12.07;6.27;;;4.80;99.90;;;;;;5069963;28;20300;-76
2021/01/05 05:09:11;;;;;;;9.07;5.20;;;4.70;99.90;;;;;;5068585;28;20209;-76
2021/01/05 05:12:05;;;;;;;7.13;5.00;;;4.70;99.90;;;;;;5072500;28;20217;-76
2021/01/05 05:14:45;;;;;;;6.90;4.70;;;4.70;99.90;;;;;;5070239;28;20698;-77
2021/01/05 05:17:38;;;;;;;6.13;4.00;;;4.80;99.90;;;;;;5070252;28;20251;-77
2021/01/05 05:20:15;;;;;;;6.57;4.60;;;4.80;99.90;;;;;;5072272;28;20288;-76
2021/01/05 05:22:52;;;;;;;7.50;4.50;;;4.80;99.90;;;;;;5072537;28;20294;-76
2021/01/05 05:25:25;;;;;;;7.13;5.00;;;4.70;99.90;;;;;;5070886;28;20211;-76
2021/01/05 05:27:58;;;;;;;8.93;5.47;;;4.70;99.90;;;;;;5067637;28;20285;-76
2021/01/05 05:30:33;;;;;;;6.47;4.30;;;4.80;99.90;;;;;;5071461;28;20197;-76
2021/01/05 05:33:03;;;;;;;6.37;4.60;;;4.70;99.90;;;;;;5069986;28;20258;-76
2021/01/05 05:36:03;;;;;;;8.20;5.37;;;4.80;99.90;;;;;;5070004;28;20449;-77
2021/01/05 05:38:50;;;;;;;7.17;4.50;;;4.80;99.90;;;;;;5072111;28;20205;-76
2021/01/05 05:41:27;;;;;;;7.70;4.67;;;4.80;99.90;;;;;;5063977;28;20305;-74
2021/01/05 05:44:23;;;;;;;7.93;5.23;;;4.80;99.90;;;;;;5070601;28;20292;-75
2021/01/05 05:46:57;;;;;;;8.13;4.77;;;4.80;99.90;;;;;;5069259;28;20284;-77
2021/01/05 05:49:51;;;;;;;6.63;4.53;;;4.80;99.90;;;;;;5072304;28;20201;-77
2021/01/05 05:52:31;;;;;;;7.13;4.53;;;4.80;99.90;;;;;;5071222;28;20215;-77
2021/01/05 05:54:59;;;;;;;7.47;4.77;;;4.80;99.90;;;;;;5067860;28;20197;-78
2021/01/05 05:57:40;;;;;;;10.37;5.30;;;4.80;99.90;;;;;;5070608;28;20225;-77
2021/01/05 06:00:29;;;;;;;7.97;4.80;;;4.80;99.90;;;;;;5073460;28;20259;-78
2021/01/05 06:02:59;;;;;;;6.97;4.40;;;4.70;99.90;;;;;;5069394;28;20197;-77
2021/01/05 06:05:29;;;;;;;6.97;4.57;;;4.70;99.90;;;;;;5070816;28;20209;-76
2021/01/05 06:07:56;;;;;;;7.17;4.63;;;4.80;99.90;;;;;;5073756;28;20692;-78
2021/01/05 06:10:23;;;;;;;8.07;5.13;;;4.80;99.90;;;;;;5072648;28;20206;-77
2021/01/05 06:12:49;;;;;;;8.13;5.20;;;4.80;99.90;;;;;;5076282;28;20228;-74
2021/01/05 06:15:18;;;;;;;6.63;4.43;;;4.80;99.90;;;;;;5067932;28;20238;-76
2021/01/05 06:17:44;;;;;;;8.47;4.53;;;4.80;99.90;;;;;;5068844;28;20201;-75
2021/01/05 06:20:12;;;;;;;5.30;4.10;;;4.80;99.90;;;;;;5072267;28;20291;-76
2021/01/05 06:22:38;;;;;;;6.93;4.60;;;4.80;99.90;;;;;;5072015;28;20209;-76
2021/01/05 06:25:06;;;;;;;8.07;4.80;;;4.80;99.90;;;;;;5070325;28;20211;-74
2021/01/05 06:27:32;;;;;;;7.77;4.87;;;4.80;99.90;;;;;;5067670;28;20198;-74
2021/01/05 06:29:59;;;;;;;5.77;4.03;;;4.80;99.90;;;;;;5069018;28;20292;-75
2021/01/05 06:32:26;;;;;;;7.50;4.50;;;4.80;99.90;;;;;;5069476;28;20237;-78
2021/01/05 06:34:53;;;;;;;6.13;4.27;;;4.80;99.90;;;;;;5068344;28;20201;-75
2021/01/05 06:37:19;;;;;;;8.30;4.37;;;4.90;99.90;;;;;;5069106;28;20233;-74
2021/01/05 06:39:46;;;;;;;6.07;4.17;;;4.80;99.90;;;;;;5071083;28;20653;-75
2021/01/05 06:42:13;;;;;;;6.30;4.00;;;4.80;99.90;;;;;;5069478;28;20293;-75
2021/01/05 06:44:41;;;;;;;6.37;4.10;;;4.80;99.90;;;;;;5071727;28;20308;-75
2021/01/05 06:47:07;;;;;;;6.10;3.70;;;4.80;99.90;;;;;;5070538;28;20239;-75
2021/01/05 06:49:35;;;;;;;7.03;4.17;;;4.80;99.90;;;;;;5072257;28;20264;-75
2021/01/05 06:52:01;;;;;;;7.03;4.23;;;4.80;99.90;;;;;;5071672;28;20221;-74
2021/01/05 06:54:27;;;;;;;5.33;3.50;;;4.90;99.90;;;;;;5071571;28;20580;-74
2021/01/05 06:56:56;;;;;;;8.97;3.83;;;4.80;99.90;;;;;;5075094;28;20340;-76
2021/01/05 06:59:23;;;;;;;5.83;3.50;;;4.80;99.90;;;;;;5075385;28;20296;-75
2021/01/05 07:01:50;;;;;;;4.90;3.63;;;4.80;99.90;;;;;;5075616;28;20233;-76
2021/01/05 07:04:17;;;;;;;7.07;3.50;;;4.80;99.90;;;;;;5075642;28;20216;-75
2021/01/05 07:06:44;;;;;;;6.27;3.70;;;4.80;99.90;;;;;;5074029;28;20209;-75
2021/01/05 07:09:11;;;;;;;5.77;3.60;;;4.80;99.90;;;;;;5072722;28;20334;-75
2021/01/05 07:11:40;;;;;;;4.40;3.57;;;4.80;99.90;;;;;;5074277;28;20259;-74
2021/01/05 07:14:06;;;;;;;4.90;3.20;;;4.80;99.90;;;;;;5074567;28;20235;-75
2021/01/05 07:16:33;;;;;;;4.67;2.97;;;4.90;99.90;;;;;;5074582;28;20228;-74
2021/01/05 07:19:01;;;;;;;4.30;2.93;;;4.80;99.90;;;;;;5075487;28;20231;-75
2021/01/05 07:21:27;;;;;;;4.47;2.77;;;4.80;99.90;;;;;;5074806;28;20649;-75
2021/01/05 07:23:54;;;;;;;4.13;3.07;;;4.80;99.90;;;;;;5074410;28;20534;-74
2021/01/05 07:26:21;;;;;;;4.87;2.80;;;4.70;99.90;;;;;;5070328;28;20232;-75
2021/01/05 07:28:47;;;;;;;3.73;2.80;;;4.80;99.90;;;;;;5073951;28;20213;-75
2021/01/05 07:31:13;;;;;;;2.83;2.23;;;4.70;99.90;;;;;;5074337;28;20297;-74
2021/01/05 07:33:40;;;;;;;5.10;2.73;;;4.70;99.90;;;;;;5076001;28;20579;-75
2021/01/05 07:36:10;;;;;;;5.00;2.60;;;4.70;99.90;;;;;;5073837;28;20218;-74
2021/01/05 07:38:38;;;;;;;3.90;2.37;;;4.70;99.90;;;;;;5074283;28;20283;-75
2021/01/05 07:41:05;;;;;;;3.80;2.60;;;4.70;99.90;;;;;;5073650;28;20248;-75
2021/01/05 07:43:32;;;;;;;3.73;2.30;;;4.70;99.90;;;;;;5074754;28;20545;-75
2021/01/05 07:45:58;;;;;;;5.47;3.07;;;4.70;99.90;;;;;;5075957;28;20292;-75
2021/01/05 07:48:25;;;;;;;4.43;2.47;;;4.60;99.90;;;;;;5075452;28;20209;-76
2021/01/05 07:50:51;;;;;;;5.33;3.00;;;4.60;99.90;;;;;;5074029;28;20212;-76
2021/01/05 07:53:17;;;;;;;3.67;2.83;;;4.70;99.90;;;;;;5072074;28;20218;-76
2021/01/05 07:55:44;;;;;;;4.10;2.57;;;4.60;99.90;;;;;;5075169;28;20288;-76
2021/01/05 07:58:11;;;;;;;4.10;2.57;;;4.60;99.90;;;;;;5074104;28;20292;-76
2021/01/05 08:00:38;;;;;;;4.03;2.40;;;4.50;99.90;;;;;;5069229;28;20257;-77
2021/01/05 08:03:06;;;;;;;2.57;1.70;;;4.60;99.90;;;;;;5072832;28;20239;-78
2021/01/05 08:05:34;;;;;;;3.53;1.90;;;4.50;99.90;;;;;;5073988;28;20314;-78
2021/01/05 08:08:00;;;;;;;2.90;1.87;;;4.50;99.90;;;;;;5073603;28;20213;-77
2021/01/05 08:10:29;;;;;;;2.43;1.90;;;4.50;99.90;;;;;;5074711;28;20244;-77
2021/01/05 08:12:56;;;;;;;3.87;1.50;;;4.50;99.90;;;;;;5072502;28;20241;-77
2021/01/05 08:15:25;;;;;;;2.50;1.63;;;4.50;99.90;;;;;;5070615;28;20233;-78
2021/01/05 08:17:53;;;;;;;1.70;1.40;;;4.40;99.90;;;;;;5071960;28;20257;-78
2021/01/05 08:20:21;;;;;;;2.13;1.57;;;4.40;99.90;;;;;;5074152;28;20296;-77
2021/01/05 08:22:48;;;;;;;2.13;1.30;;;4.40;99.90;;;;;;5073430;28;20291;-75
2021/01/05 08:25:15;;;;;;;1.97;1.20;;;4.30;99.90;;;;;;5072802;28;20243;-76
2021/01/05 08:27:47;;;;;;;1.90;1.40;;;4.30;99.90;;;;;;5073543;28;20285;-76
2021/01/05 08:30:16;;;;;;;2.47;1.37;;;4.30;99.90;;;;;;5071318;28;20236;-75
2021/01/05 08:32:43;;;;;;;2.40;1.70;;;4.30;99.90;;;;;;5073138;28;20210;-75
2021/01/05 08:35:11;;;;;;;2.30;1.63;;;4.30;99.90;;;;;;5073500;28;20197;-76
2021/01/05 08:37:37;;;;;;;1.57;1.47;;;4.20;99.90;;;;;;5068782;28;20678;-76
2021/01/05 08:40:06;;;;;;;2.17;1.40;;;4.20;99.90;;;;;;5073674;28;20208;-75
2021/01/05 08:42:32;;;;;;;2.07;1.47;;;4.20;99.90;;;;;;5068749;28;20201;-76
2021/01/05 08:44:59;;;;;;;2.23;1.50;;;4.20;99.90;;;;;;5066501;28;20213;-77
2021/01/05 08:47:25;;;;;;;2.30;1.87;;;4.20;99.90;;;;;;5071969;28;20574;-77
2021/01/05 08:49:52;;;;;;;2.87;1.80;;;4.10;99.90;;;;;;5071466;28;20205;-77
2021/01/05 08:52:19;;;;;;;3.33;2.23;;;4.10;99.90;;;;;;5067872;28;20331;-79
2021/01/05 08:54:46;;;;;;;3.47;2.13;;;4.10;99.90;;;;;;5073221;28;20209;-77
2021/01/05 08:57:14;;;;;;;3.37;2.10;;;4.10;99.90;;;;;;5072549;28;20734;-75
2021/01/05 08:59:41;;;;;;;3.13;2.23;;;4.10;99.90;;;;;;5071705;28;20304;-75
2021/01/05 09:02:08;;;;;;;3.87;1.87;;;4.10;99.90;;;;;;5072536;28;20731;-78
2021/01/05 09:04:35;;;;;;;7.63;1.90;;;4.00;99.90;;;;;;5072584;28;20255;-78
2021/01/05 09:07:03;;;;;;;3.53;1.90;;;4.00;99.90;;;;;;5073733;28;20241;-77
2021/01/05 09:09:30;;;;;;;3.17;1.97;;;3.90;99.90;;;;;;5070536;28;20201;-78
2021/01/05 09:11:58;;;;;;;1.97;1.77;;;3.90;99.90;;;;;;5077493;28;20229;-79
2021/01/05 09:14:26;;;;;;;2.53;2.07;;;3.90;99.90;;;;;;5070133;28;20774;-77
2021/01/05 09:16:56;;;;;;;2.63;1.70;;;3.80;99.90;;;;;;5068960;28;20809;-75
2021/01/05 09:19:23;;;;;;;2.40;1.90;;;3.80;99.90;;;;;;5075547;28;20340;-78
2021/01/05 09:21:49;;;;;;;2.80;2.33;;;3.90;99.90;;;;;;5070427;28;20625;-75
2021/01/05 09:24:17;;;;;;;2.60;2.17;;;3.70;99.90;;;;;;5071788;28;20233;-74
2021/01/05 09:26:44;;;;;;;4.30;2.47;;;3.60;99.90;;;;;;5070892;28;20673;-79
2021/01/05 09:29:13;;;;;;;2.67;2.37;;;3.60;99.90;;;;;;5073002;28;20247;-77
2021/01/05 09:31:42;;;;;;;2.60;2.03;;;3.50;99.90;;;;;;5071635;28;20209;-76
2021/01/05 09:34:10;;;;;;;3.37;2.10;;;3.60;99.90;;;;;;5067936;28;20201;-78
2021/01/05 09:36:37;;;;;;;1.73;1.63;;;3.60;99.90;;;;;;5072786;28;20221;-77
2021/01/05 09:39:06;;;;;;;2.47;1.13;;;3.50;99.90;;;;;;5073442;28;20209;-78
2021/01/05 09:41:36;;;;;;;2.50;1.40;;;3.50;99.90;;;;;;5071144;28;20213;-77
2021/01/05 09:44:03;;;;;;;1.37;0.97;;;3.50;99.90;;;;;;5071848;28;20204;-77
2021/01/05 09:46:30;;;;;;;1.97;1.20;;;3.50;99.90;;;;;;5069784;28;20209;-77
2021/01/05 09:48:56;;;;;;;1.57;1.20;;;3.50;99.90;;;;;;5070164;28;20209;-76
2021/01/05 09:51:25;;;;;;;2.17;1.50;;;3.40;99.90;;;;;;5067418;28;20205;-77
2021/01/05 09:53:51;;;;;;;1.90;1.30;;;3.40;99.90;;;;;;5066513;28;20198;-78
2021/01/05 09:56:19;;;;;;;2.30;1.43;;;3.40;99.90;;;;;;5072227;28;20579;-78
2021/01/05 09:58:46;;;;;;;1.83;1.30;;;3.30;99.90;;;;;;5069040;28;20208;-77
2021/01/05 10:01:13;;;;;;;1.30;1.17;;;3.30;99.90;;;;;;5072621;28;20201;-77
2021/01/05 10:03:40;;;;;;;1.30;1.10;;;3.30;99.90;;;;;;5074257;28;20213;-77
2021/01/05 10:06:10;;;;;;;2.67;1.20;;;3.30;99.90;;;;;;5072374;28;20269;-76
2021/01/05 10:08:37;;;;;;;1.27;1.17;;;3.30;99.90;;;;;;5073802;28;20228;-77
2021/01/05 10:11:05;;;;;;;3.33;1.30;;;3.20;99.90;;;;;;5073129;28;20254;-78
2021/01/05 10:13:35;;;;;;;1.83;1.20;;;3.20;99.90;;;;;;5066805;28;20235;-79
2021/01/05 10:16:05;;;;;;;2.20;1.10;;;3.20;99.90;;;;;;5069698;28;20213;-79
2021/01/05 10:18:31;;;;;;;2.87;1.33;;;3.20;99.90;;;;;;5068057;28;20327;-78
2021/01/05 10:20:58;;;;;;;2.77;1.77;;;3.20;99.90;;;;;;5073704;28;20642;-79
2021/01/05 10:23:24;;;;;;;1.20;1.10;;;3.10;99.90;;;;;;5073143;28;20201;-77
2021/01/05 10:25:51;;;;;;;1.40;1.30;;;3.10;99.90;;;;;;5071967;28;20210;-78
2021/01/05 10:28:17;;;;;;;2.27;1.30;;;3.10;99.90;;;;;;5074132;28;20209;-78
2021/01/05 10:30:44;;;;;;;2.53;1.27;;;3.00;99.90;;;;;;5076638;28;20205;-77
2021/01/05 10:33:11;;;;;;;1.87;1.40;;;3.00;99.90;;;;;;5078218;28;20224;-78
2021/01/05 10:35:38;;;;;;;1.50;1.33;;;2.90;99.90;;;;;;5073016;28;20212;-77
2021/01/05 10:38:04;;;;;;;2.60;1.57;;;2.90;99.90;;;;;;5078738;28;20264;-78
2021/01/05 10:40:31;;;;;;;2.33;1.67;;;2.90;99.90;;;;;;5079654;28;20248;-78
2021/01/05 10:42:58;;;;;;;2.10;1.47;;;2.80;99.90;;;;;;5082710;28;20209;-80
2021/01/05 10:45:27;;;;;;;3.97;1.60;;;2.80;99.90;;;;;;5079713;28;20213;-79
2021/01/05 10:47:54;;;;;;;3.47;1.63;;;2.80;99.90;;;;;;5086650;28;20630;-79
2021/01/05 10:50:24;;;;;;;3.27;1.50;;;2.70;99.90;;;;;;5077370;28;20209;-77
2021/01/05 10:52:51;;;;;;;2.50;1.63;;;2.80;99.90;;;;;;5079381;28;20205;-81
2021/01/05 10:55:19;;;;;;;2.07;1.50;;;2.80;99.90;;;;;;5078224;28;20229;-78
2021/01/05 10:57:45;;;;;;;2.47;1.70;;;2.80;99.90;;;;;;5079360;28;20218;-80
2021/01/05 11:00:15;;;;;;;2.77;2.10;;;2.80;99.90;;;;;;5082745;28;20201;-79
2021/01/05 11:02:41;;;;;;;2.10;1.80;;;2.80;99.90;;;;;;5079321;28;20666;-78
2021/01/05 11:05:13;;;;;;;2.10;1.80;;;2.90;99.90;;;;;;5074912;28;20243;-79
2021/01/05 11:07:43;;;;;;;3.20;2.10;;;2.80;99.90;;;;;;5076206;28;20212;-79
2021/01/05 11:10:12;;;;;;;2.67;1.93;;;2.90;99.90;;;;;;5073963;28;20611;-76
2021/01/05 11:12:38;;;;;;;2.50;2.13;;;2.90;99.90;;;;;;5061305;28;20317;-76
2021/01/05 11:15:06;;;;;;;3.60;2.13;;;2.90;99.90;;;;;;5073639;28;20288;-76
2021/01/05 11:17:33;;;;;;;4.13;2.33;;;2.90;99.90;;;;;;5076528;28;20812;-75
2021/01/05 11:19:59;;;;;;;4.17;2.47;;;2.90;99.90;;;;;;5074341;28;20243;-76
2021/01/05 11:22:26;;;;;;;3.47;2.47;;;2.90;99.90;;;;;;5074843;28;20206;-76
2021/01/05 11:24:53;;;;;;;3.80;2.47;;;3.00;99.90;;;;;;5078641;28;20240;-76
2021/01/05 11:27:20;;;;;;;4.10;2.67;;;3.00;99.90;;;;;;5074508;28;20324;-75
2021/01/05 11:29:47;;;;;;;2.93;2.63;;;3.10;99.90;;;;;;5074885;28;20216;-77
2021/01/05 11:32:16;;;;;;;3.13;2.53;;;3.10;99.90;;;;;;5074593;28;20215;-76
2021/01/05 11:34:45;;;;;;;3.00;2.60;;;3.10;99.90;;;;;;5074925;28;20281;-75
2021/01/05 11:37:15;;;;;;;4.10;3.00;;;3.10;99.90;;;;;;5070253;28;20678;-77
2021/01/05 11:39:43;;;;;;;3.70;2.80;;;3.10;99.90;;;;;;5074882;28;20243;-75
2021/01/05 11:42:11;;;;;;;5.23;3.30;;;3.20;99.90;;;;;;5071965;28;20258;-77
2021/01/05 11:44:39;;;;;;;4.70;2.93;;;3.20;99.90;;;;;;5072004;28;20205;-77
2021/01/05 11:47:06;;;;;;;4.57;3.37;;;3.30;99.90;;;;;;5073084;28;20561;-76
2021/01/05 11:49:33;;;;;;;5.03;3.20;;;3.30;99.90;;;;;;5070579;28;20304;-74
2021/01/05 11:51:59;;;;;;;3.93;3.10;;;3.30;99.90;;;;;;5074336;28;20202;-75
2021/01/05 11:54:28;;;;;;;4.37;3.23;;;3.40;99.90;;;;;;5073691;28;20706;-75
2021/01/05 11:56:58;;;;;;;5.30;4.03;;;3.40;99.90;;;;;;5074012;28;20275;-76
2021/01/05 11:59:28;;;;;;;4.50;3.47;;;3.40;99.90;;;;;;5075705;28;20293;-75
2021/01/05 12:01:55;;;;;;;6.40;3.67;;;3.50;99.90;;;;;;5073318;28;20255;-77
2021/01/05 12:04:21;;;;;;;5.80;3.60;;;3.50;99.90;;;;;;5073633;28;20676;-74
2021/01/05 12:06:48;;;;;;;6.03;3.73;;;3.60;99.90;;;;;;5073306;28;20201;-75
2021/01/05 12:09:15;;;;;;;6.40;3.40;;;3.60;99.90;;;;;;5071996;28;20229;-76
2021/01/05 12:11:42;;;;;;;5.70;3.60;;;3.60;99.90;;;;;;5076493;28;20560;-78
2021/01/05 12:14:08;;;;;;;6.20;4.20;;;3.70;99.90;;;;;;5069510;28;20681;-76
2021/01/05 12:16:38;;;;;;;6.07;4.20;;;3.70;99.90;;;;;;5071119;28;20304;-77
2021/01/05 12:19:08;;;;;;;5.70;4.27;;;3.80;99.90;;;;;;5068432;28;20295;-74
2021/01/05 12:21:36;;;;;;;4.77;3.63;;;3.80;99.90;;;;;;5071717;28;20334;-76
2021/01/05 12:24:04;;;;;;;6.27;4.00;;;3.90;99.90;;;;;;5066364;28;20261;-76
2021/01/05 12:26:35;;;;;;;6.03;3.67;;;4.00;99.90;;;;;;5070821;28;20259;-77
2021/01/05 12:29:03;;;;;;;5.63;3.97;;;4.00;99.90;;;;;;5074682;28;20211;-76
2021/01/05 12:31:30;;;;;;;6.07;4.53;;;4.00;99.90;;;;;;5073930;28;20197;-76
2021/01/05 12:33:57;;;;;;;5.00;4.00;;;4.10;99.90;;;;;;5075196;28;20223;-78
2021/01/05 12:36:27;;;;;;;7.37;4.97;;;4.10;99.90;;;;;;5069577;28;20248;-78
2021/01/05 12:38:53;;;;;;;6.03;4.73;;;4.10;99.90;;;;;;5067048;28;20210;-80
2021/01/05 12:41:20;;;;;;;5.63;4.33;;;4.10;99.90;;;;;;5074530;28;20244;-79
2021/01/05 12:43:46;;;;;;;5.97;4.33;;;4.10;99.90;;;;;;5077260;28;20209;-78
2021/01/05 12:46:21;;;;;;;8.27;5.27;;;4.10;99.90;;;;;;5077253;28;20225;-76
2021/01/05 12:48:47;;;;;;;7.13;5.20;;;4.20;99.90;;;;;;5079013;28;20250;-80
2021/01/05 12:51:15;;;;;;;7.67;4.87;;;4.20;99.90;;;;;;5075005;28;20289;-77
2021/01/05 12:53:41;;;;;;;7.80;5.43;;;4.20;99.90;;;;;;5086639;28;20214;-78
2021/01/05 12:56:08;;;;;;;10.30;5.53;;;4.20;99.90;;;;;;5079496;28;20572;-78
2021/01/05 12:58:34;;;;;;;8.77;5.33;;;4.30;99.90;;;;;;5083023;28;20216;-78
2021/01/05 13:01:00;;;;;;;7.17;5.47;;;4.30;99.90;;;;;;5077643;28;20292;-78
2021/01/05 13:03:27;;;;;;;8.27;5.20;;;4.30;99.90;;;;;;5078028;28;20267;-77
2021/01/05 13:05:56;;;;;;;7.10;5.83;;;4.30;99.90;;;;;;5075225;28;20629;-79